Terminal Aerodrome Forecast
Issued by NWS

Home | Current Version | Previous Version | Graphics & Text | Print | Product List | Glossary On
Versions: 1 2 3 4 5 6 7 8 9 10 11 12
000
FTUS43 KMPX 160520
TAFAXN
TAF
KAXN 160520Z 1606/1706 15009KT P6SM VCSH SCT060 OVC080
     FM161100 16007KT P6SM OVC060
     FM161600 23008KT P6SM OVC045
     FM162000 29010KT P6SM BKN050
     FM170100 36006KT P6SM FEW060=

USA.gov is the U.S. government's official web portal to all federal, state and local government web resources and services.